sensor_id;sensor_type;location;lat;lon;timestamp;P1;durP1;ratioP1;P2;durP2;ratioP2
31336;SDS011;22846;42.654;23.314;2023-11-21T00:01:56;13.60;;;9.60;;
31336;SDS011;22846;42.654;23.314;2023-11-21T00:04:22;14.68;;;9.20;;
31336;SDS011;22846;42.654;23.314;2023-11-21T00:06:48;12.73;;;9.52;;
31336;SDS011;22846;42.654;23.314;2023-11-21T00:09:14;13.65;;;9.65;;
31336;SDS011;22846;42.654;23.314;2023-11-21T00:11:43;11.85;;;8.90;;
31336;SDS011;22846;42.654;23.314;2023-11-21T00:14:10;12.43;;;8.45;;
31336;SDS011;22846;42.654;23.314;2023-11-21T00:16:36;13.57;;;9.48;;
31336;SDS011;22846;42.654;23.314;2023-11-21T00:19:01;14.77;;;9.00;;
31336;SDS011;22846;42.654;23.314;2023-11-21T00:21:27;12.27;;;8.35;;
31336;SDS011;22846;42.654;23.314;2023-11-21T00:23:52;11.27;;;7.97;;
31336;SDS011;22846;42.654;23.314;2023-11-21T00:26:18;11.93;;;8.02;;
31336;SDS011;22846;42.654;23.314;2023-11-21T00:28:43;13.15;;;8.50;;
31336;SDS011;22846;42.654;23.314;2023-11-21T00:31:10;10.63;;;8.00;;
31336;SDS011;22846;42.654;23.314;2023-11-21T00:33:37;12.93;;;8.25;;
31336;SDS011;22846;42.654;23.314;2023-11-21T00:36:02;10.98;;;8.18;;
31336;SDS011;22846;42.654;23.314;2023-11-21T00:38:28;9.95;;;7.53;;
31336;SDS011;22846;42.654;23.314;2023-11-21T00:40:53;12.40;;;7.70;;
31336;SDS011;22846;42.654;23.314;2023-11-21T00:43:22;12.27;;;8.15;;
31336;SDS011;22846;42.654;23.314;2023-11-21T00:45:48;10.73;;;7.30;;
31336;SDS011;22846;42.654;23.314;2023-11-21T00:48:14;10.02;;;7.47;;
31336;SDS011;22846;42.654;23.314;2023-11-21T00:50:40;12.18;;;7.30;;
31336;SDS011;22846;42.654;23.314;2023-11-21T00:53:05;11.23;;;7.25;;
31336;SDS011;22846;42.654;23.314;2023-11-21T00:55:32;9.00;;;7.15;;
31336;SDS011;22846;42.654;23.314;2023-11-21T00:57:58;9.73;;;7.20;;
31336;SDS011;22846;42.654;23.314;2023-11-21T01:00:23;12.32;;;7.28;;
31336;SDS011;22846;42.654;23.314;2023-11-21T01:02:49;11.80;;;6.97;;
31336;SDS011;22846;42.654;23.314;2023-11-21T01:05:14;10.80;;;6.82;;
31336;SDS011;22846;42.654;23.314;2023-11-21T01:07:39;9.75;;;6.75;;
31336;SDS011;22846;42.654;23.314;2023-11-21T01:10:05;9.45;;;6.60;;
31336;SDS011;22846;42.654;23.314;2023-11-21T01:12:33;9.20;;;6.30;;
31336;SDS011;22846;42.654;23.314;2023-11-21T01:14:59;8.43;;;6.72;;
31336;SDS011;22846;42.654;23.314;2023-11-21T01:17:26;9.60;;;6.70;;
31336;SDS011;22846;42.654;23.314;2023-11-21T01:19:52;8.00;;;6.03;;
31336;SDS011;22846;42.654;23.314;2023-11-21T01:22:17;9.30;;;6.70;;
31336;SDS011;22846;42.654;23.314;2023-11-21T01:24:47;10.23;;;6.93;;
31336;SDS011;22846;42.654;23.314;2023-11-21T01:27:12;9.73;;;6.35;;
31336;SDS011;22846;42.654;23.314;2023-11-21T01:29:38;9.05;;;6.53;;
31336;SDS011;22846;42.654;23.314;2023-11-21T01:32:03;8.10;;;5.88;;
31336;SDS011;22846;42.654;23.314;2023-11-21T01:34:29;8.52;;;5.63;;
31336;SDS011;22846;42.654;23.314;2023-11-21T01:36:55;7.80;;;5.75;;
31336;SDS011;22846;42.654;23.314;2023-11-21T01:39:21;7.70;;;5.50;;
31336;SDS011;22846;42.654;23.314;2023-11-21T01:41:49;9.25;;;5.70;;
31336;SDS011;22846;42.654;23.314;2023-11-21T01:44:16;7.90;;;5.82;;
31336;SDS011;22846;42.654;23.314;2023-11-21T01:46:42;7.18;;;5.60;;
31336;SDS011;22846;42.654;23.314;2023-11-21T01:49:07;7.88;;;5.75;;
31336;SDS011;22846;42.654;23.314;2023-11-21T01:51:38;7.43;;;5.43;;
31336;SDS011;22846;42.654;23.314;2023-11-21T01:54:04;9.27;;;5.53;;
31336;SDS011;22846;42.654;23.314;2023-11-21T01:56:30;6.90;;;5.10;;
31336;SDS011;22846;42.654;23.314;2023-11-21T01:58:57;8.95;;;6.10;;
31336;SDS011;22846;42.654;23.314;2023-11-21T02:01:22;7.32;;;5.45;;
31336;SDS011;22846;42.654;23.314;2023-11-21T02:03:48;7.07;;;5.13;;
31336;SDS011;22846;42.654;23.314;2023-11-21T02:06:13;7.38;;;5.32;;
31336;SDS011;22846;42.654;23.314;2023-11-21T02:08:39;7.03;;;5.32;;
31336;SDS011;22846;42.654;23.314;2023-11-21T02:11:05;7.72;;;5.10;;
31336;SDS011;22846;42.654;23.314;2023-11-21T02:13:31;6.95;;;5.18;;
31336;SDS011;22846;42.654;23.314;2023-11-21T02:15:57;8.32;;;5.15;;
31336;SDS011;22846;42.654;23.314;2023-11-21T02:18:23;6.80;;;5.03;;
31336;SDS011;22846;42.654;23.314;2023-11-21T02:20:48;7.22;;;5.05;;
31336;SDS011;22846;42.654;23.314;2023-11-21T02:23:32;6.18;;;4.63;;
31336;SDS011;22846;42.654;23.314;2023-11-21T02:25:58;7.03;;;4.88;;
31336;SDS011;22846;42.654;23.314;2023-11-21T02:28:24;5.65;;;4.55;;
31336;SDS011;22846;42.654;23.314;2023-11-21T02:30:53;7.35;;;4.60;;
31336;SDS011;22846;42.654;23.314;2023-11-21T02:33:23;6.23;;;4.57;;
31336;SDS011;22846;42.654;23.314;2023-11-21T02:35:48;6.25;;;4.53;;
31336;SDS011;22846;42.654;23.314;2023-11-21T02:38:14;5.55;;;4.72;;
31336;SDS011;22846;42.654;23.314;2023-11-21T02:40:40;7.32;;;4.85;;
31336;SDS011;22846;42.654;23.314;2023-11-21T02:43:06;6.25;;;4.65;;
31336;SDS011;22846;42.654;23.314;2023-11-21T02:45:32;6.70;;;4.70;;
31336;SDS011;22846;42.654;23.314;2023-11-21T02:47:57;7.80;;;5.07;;
31336;SDS011;22846;42.654;23.314;2023-11-21T02:50:23;6.85;;;5.10;;
31336;SDS011;22846;42.654;23.314;2023-11-21T02:52:49;5.72;;;4.55;;
31336;SDS011;22846;42.654;23.314;2023-11-21T02:55:15;6.25;;;4.72;;
31336;SDS011;22846;42.654;23.314;2023-11-21T02:57:40;5.78;;;4.53;;
31336;SDS011;22846;42.654;23.314;2023-11-21T03:00:06;6.32;;;4.53;;
31336;SDS011;22846;42.654;23.314;2023-11-21T03:02:33;6.15;;;4.53;;
31336;SDS011;22846;42.654;23.314;2023-11-21T03:05:01;6.28;;;4.57;;
31336;SDS011;22846;42.654;23.314;2023-11-21T03:07:27;5.97;;;4.40;;
31336;SDS011;22846;42.654;23.314;2023-11-21T03:09:52;5.90;;;4.30;;
31336;SDS011;22846;42.654;23.314;2023-11-21T03:12:18;6.43;;;4.63;;
31336;SDS011;22846;42.654;23.314;2023-11-21T03:14:44;4.95;;;4.00;;
31336;SDS011;22846;42.654;23.314;2023-11-21T03:17:10;6.45;;;4.45;;
31336;SDS011;22846;42.654;23.314;2023-11-21T03:19:36;5.95;;;4.50;;
31336;SDS011;22846;42.654;23.314;2023-11-21T03:22:02;6.13;;;4.53;;
31336;SDS011;22846;42.654;23.314;2023-11-21T03:24:29;5.20;;;4.00;;
31336;SDS011;22846;42.654;23.314;2023-11-21T03:26:56;5.38;;;4.22;;
31336;SDS011;22846;42.654;23.314;2023-11-21T03:29:21;5.63;;;4.30;;
31336;SDS011;22846;42.654;23.314;2023-11-21T03:31:47;6.38;;;4.60;;
31336;SDS011;22846;42.654;23.314;2023-11-21T03:34:19;5.22;;;4.00;;
31336;SDS011;22846;42.654;23.314;2023-11-21T03:36:48;6.38;;;4.40;;
31336;SDS011;22846;42.654;23.314;2023-11-21T03:39:13;4.88;;;4.00;;
31336;SDS011;22846;42.654;23.314;2023-11-21T03:41:39;6.05;;;4.32;;
31336;SDS011;22846;42.654;23.314;2023-11-21T03:44:04;5.30;;;4.13;;
31336;SDS011;22846;42.654;23.314;2023-11-21T03:46:31;6.28;;;4.22;;
31336;SDS011;22846;42.654;23.314;2023-11-21T03:48:57;4.68;;;4.05;;
31336;SDS011;22846;42.654;23.314;2023-11-21T03:51:22;6.65;;;4.13;;
31336;SDS011;22846;42.654;23.314;2023-11-21T03:53:47;5.47;;;3.97;;
31336;SDS011;22846;42.654;23.314;2023-11-21T03:56:13;6.50;;;4.43;;
31336;SDS011;22846;42.654;23.314;2023-11-21T03:58:39;5.75;;;4.32;;
31336;SDS011;22846;42.654;23.314;2023-11-21T04:01:05;5.85;;;4.07;;
31336;SDS011;22846;42.654;23.314;2023-11-21T04:03:30;5.15;;;3.90;;
31336;SDS011;22846;42.654;23.314;2023-11-21T04:05:56;5.65;;;4.35;;
31336;SDS011;22846;42.654;23.314;2023-11-21T04:08:22;4.72;;;3.70;;
31336;SDS011;22846;42.654;23.314;2023-11-21T04:10:47;5.18;;;3.65;;
31336;SDS011;22846;42.654;23.314;2023-11-21T04:13:13;5.15;;;4.07;;
31336;SDS011;22846;42.654;23.314;2023-11-21T04:15:39;5.88;;;3.90;;
31336;SDS011;22846;42.654;23.314;2023-11-21T04:18:04;4.82;;;3.85;;
31336;SDS011;22846;42.654;23.314;2023-11-21T04:20:30;5.90;;;4.10;;
31336;SDS011;22846;42.654;23.314;2023-11-21T04:22:55;4.72;;;3.35;;
31336;SDS011;22846;42.654;23.314;2023-11-21T04:25:21;4.82;;;3.53;;
31336;SDS011;22846;42.654;23.314;2023-11-21T04:27:48;5.95;;;4.40;;
31336;SDS011;22846;42.654;23.314;2023-11-21T04:30:14;5.20;;;3.63;;
31336;SDS011;22846;42.654;23.314;2023-11-21T04:32:40;4.88;;;3.53;;
31336;SDS011;22846;42.654;23.314;2023-11-21T04:35:06;6.00;;;4.03;;
31336;SDS011;22846;42.654;23.314;2023-11-21T04:37:33;6.95;;;3.92;;
31336;SDS011;22846;42.654;23.314;2023-11-21T04:39:59;5.70;;;3.95;;
31336;SDS011;22846;42.654;23.314;2023-11-21T04:42:24;5.82;;;3.45;;
31336;SDS011;22846;42.654;23.314;2023-11-21T04:44:50;4.35;;;3.42;;
31336;SDS011;22846;42.654;23.314;2023-11-21T04:47:17;6.00;;;3.85;;
31336;SDS011;22846;42.654;23.314;2023-11-21T04:49:45;3.92;;;3.15;;
31336;SDS011;22846;42.654;23.314;2023-11-21T04:52:14;5.07;;;3.42;;
31336;SDS011;22846;42.654;23.314;2023-11-21T04:54:39;5.05;;;3.78;;
31336;SDS011;22846;42.654;23.314;2023-11-21T04:57:05;4.80;;;3.53;;
31336;SDS011;22846;42.654;23.314;2023-11-21T04:59:32;4.18;;;3.40;;
31336;SDS011;22846;42.654;23.314;2023-11-21T05:01:58;4.63;;;3.60;;
31336;SDS011;22846;42.654;23.314;2023-11-21T05:04:25;4.53;;;3.50;;
31336;SDS011;22846;42.654;23.314;2023-11-21T05:06:50;5.22;;;3.90;;
31336;SDS011;22846;42.654;23.314;2023-11-21T05:09:17;4.85;;;3.88;;
31336;SDS011;22846;42.654;23.314;2023-11-21T05:11:42;4.45;;;3.60;;
31336;SDS011;22846;42.654;23.314;2023-11-21T05:14:08;4.85;;;3.47;;
31336;SDS011;22846;42.654;23.314;2023-11-21T05:16:34;6.32;;;3.50;;
31336;SDS011;22846;42.654;23.314;2023-11-21T05:19:00;5.80;;;3.40;;
31336;SDS011;22846;42.654;23.314;2023-11-21T05:21:29;4.55;;;3.20;;
31336;SDS011;22846;42.654;23.314;2023-11-21T05:23:57;5.72;;;4.00;;
31336;SDS011;22846;42.654;23.314;2023-11-21T05:26:22;9.20;;;4.75;;
31336;SDS011;22846;42.654;23.314;2023-11-21T05:28:48;6.78;;;4.55;;
31336;SDS011;22846;42.654;23.314;2023-11-21T05:31:13;9.07;;;4.43;;
31336;SDS011;22846;42.654;23.314;2023-11-21T05:33:39;6.80;;;3.90;;
31336;SDS011;22846;42.654;23.314;2023-11-21T05:36:06;13.18;;;4.90;;
31336;SDS011;22846;42.654;23.314;2023-11-21T05:38:33;7.35;;;4.22;;
31336;SDS011;22846;42.654;23.314;2023-11-21T05:40:58;10.88;;;4.55;;
31336;SDS011;22846;42.654;23.314;2023-11-21T05:43:24;9.73;;;4.18;;
31336;SDS011;22846;42.654;23.314;2023-11-21T05:45:50;10.40;;;4.50;;
31336;SDS011;22846;42.654;23.314;2023-11-21T05:48:15;10.13;;;4.18;;
31336;SDS011;22846;42.654;23.314;2023-11-21T05:50:40;8.73;;;4.30;;
31336;SDS011;22846;42.654;23.314;2023-11-21T05:53:06;6.63;;;4.30;;
31336;SDS011;22846;42.654;23.314;2023-11-21T05:55:32;8.45;;;4.25;;
31336;SDS011;22846;42.654;23.314;2023-11-21T05:57:58;8.43;;;4.22;;
31336;SDS011;22846;42.654;23.314;2023-11-21T06:00:23;9.70;;;4.25;;
31336;SDS011;22846;42.654;23.314;2023-11-21T06:02:50;7.40;;;3.85;;
31336;SDS011;22846;42.654;23.314;2023-11-21T06:05:21;5.88;;;4.28;;
31336;SDS011;22846;42.654;23.314;2023-11-21T06:07:54;6.47;;;3.70;;
31336;SDS011;22846;42.654;23.314;2023-11-21T06:10:23;5.38;;;3.70;;
31336;SDS011;22846;42.654;23.314;2023-11-21T06:12:48;7.18;;;4.57;;
31336;SDS011;22846;42.654;23.314;2023-11-21T06:15:14;6.55;;;3.88;;
31336;SDS011;22846;42.654;23.314;2023-11-21T06:17:41;6.50;;;3.53;;
31336;SDS011;22846;42.654;23.314;2023-11-21T06:20:08;6.57;;;3.90;;
31336;SDS011;22846;42.654;23.314;2023-11-21T06:25:02;7.30;;;4.30;;
31336;SDS011;22846;42.654;23.314;2023-11-21T06:27:29;6.00;;;3.95;;
31336;SDS011;22846;42.654;23.314;2023-11-21T06:29:55;6.45;;;5.05;;
31336;SDS011;22846;42.654;23.314;2023-11-21T06:32:21;6.15;;;3.78;;
31336;SDS011;22846;42.654;23.314;2023-11-21T06:34:47;7.30;;;3.78;;
31336;SDS011;22846;42.654;23.314;2023-11-21T06:37:13;7.32;;;4.05;;
31336;SDS011;22846;42.654;23.314;2023-11-21T06:39:38;4.70;;;3.88;;
31336;SDS011;22846;42.654;23.314;2023-11-21T06:42:04;8.25;;;3.83;;
31336;SDS011;22846;42.654;23.314;2023-11-21T06:44:29;5.90;;;3.95;;
31336;SDS011;22846;42.654;23.314;2023-11-21T06:46:54;11.18;;;4.82;;
31336;SDS011;22846;42.654;23.314;2023-11-21T06:49:20;6.40;;;4.70;;
31336;SDS011;22846;42.654;23.314;2023-11-21T06:51:45;6.68;;;4.00;;
31336;SDS011;22846;42.654;23.314;2023-11-21T06:54:11;6.20;;;3.70;;
31336;SDS011;22846;42.654;23.314;2023-11-21T06:56:36;7.13;;;3.75;;
31336;SDS011;22846;42.654;23.314;2023-11-21T06:59:04;5.45;;;3.92;;
31336;SDS011;22846;42.654;23.314;2023-11-21T07:01:30;5.45;;;4.07;;
31336;SDS011;22846;42.654;23.314;2023-11-21T07:03:59;6.13;;;4.15;;
31336;SDS011;22846;42.654;23.314;2023-11-21T07:06:24;5.75;;;3.72;;
31336;SDS011;22846;42.654;23.314;2023-11-21T07:08:49;7.65;;;4.53;;
31336;SDS011;22846;42.654;23.314;2023-11-21T07:11:15;5.72;;;3.75;;
31336;SDS011;22846;42.654;23.314;2023-11-21T07:13:40;6.60;;;3.75;;
31336;SDS011;22846;42.654;23.314;2023-11-21T07:16:06;7.45;;;4.13;;
31336;SDS011;22846;42.654;23.314;2023-11-21T07:18:31;6.60;;;3.75;;
31336;SDS011;22846;42.654;23.314;2023-11-21T07:20:57;5.85;;;4.22;;
31336;SDS011;22846;42.654;23.314;2023-11-21T07:23:23;7.00;;;4.05;;
31336;SDS011;22846;42.654;23.314;2023-11-21T07:25:49;5.30;;;3.90;;
31336;SDS011;22846;42.654;23.314;2023-11-21T07:28:14;6.25;;;4.10;;
31336;SDS011;22846;42.654;23.314;2023-11-21T07:30:40;5.80;;;4.20;;
31336;SDS011;22846;42.654;23.314;2023-11-21T07:33:05;6.03;;;4.05;;
31336;SDS011;22846;42.654;23.314;2023-11-21T07:35:32;5.75;;;4.10;;
31336;SDS011;22846;42.654;23.314;2023-11-21T07:37:57;5.50;;;4.15;;
31336;SDS011;22846;42.654;23.314;2023-11-21T07:40:23;5.95;;;3.97;;
31336;SDS011;22846;42.654;23.314;2023-11-21T07:42:48;7.72;;;4.38;;
31336;SDS011;22846;42.654;23.314;2023-11-21T07:45:15;7.90;;;4.22;;
31336;SDS011;22846;42.654;23.314;2023-11-21T07:47:40;6.88;;;4.10;;
31336;SDS011;22846;42.654;23.314;2023-11-21T07:50:06;7.15;;;4.28;;
31336;SDS011;22846;42.654;23.314;2023-11-21T07:52:32;5.72;;;4.25;;
31336;SDS011;22846;42.654;23.314;2023-11-21T07:54:58;6.05;;;3.80;;
31336;SDS011;22846;42.654;23.314;2023-11-21T07:57:24;6.63;;;3.85;;
31336;SDS011;22846;42.654;23.314;2023-11-21T07:59:49;6.57;;;4.35;;
31336;SDS011;22846;42.654;23.314;2023-11-21T08:02:14;5.85;;;3.95;;
31336;SDS011;22846;42.654;23.314;2023-11-21T08:04:42;6.43;;;3.63;;
31336;SDS011;22846;42.654;23.314;2023-11-21T08:07:09;6.22;;;4.28;;
31336;SDS011;22846;42.654;23.314;2023-11-21T08:09:36;5.75;;;4.20;;
31336;SDS011;22846;42.654;23.314;2023-11-21T08:12:01;5.93;;;4.30;;
31336;SDS011;22846;42.654;23.314;2023-11-21T08:14:27;5.05;;;3.80;;
31336;SDS011;22846;42.654;23.314;2023-11-21T08:16:53;6.15;;;4.30;;
31336;SDS011;22846;42.654;23.314;2023-11-21T08:19:22;6.07;;;3.78;;
31336;SDS011;22846;42.654;23.314;2023-11-21T08:21:50;8.80;;;4.13;;
31336;SDS011;22846;42.654;23.314;2023-11-21T08:24:17;7.82;;;3.90;;
31336;SDS011;22846;42.654;23.314;2023-11-21T08:26:42;11.02;;;4.20;;
31336;SDS011;22846;42.654;23.314;2023-11-21T08:29:08;7.93;;;4.30;;
31336;SDS011;22846;42.654;23.314;2023-11-21T08:31:33;8.25;;;4.15;;
31336;SDS011;22846;42.654;23.314;2023-11-21T08:33:59;9.55;;;5.13;;
31336;SDS011;22846;42.654;23.314;2023-11-21T08:36:28;18.35;;;11.13;;
31336;SDS011;22846;42.654;23.314;2023-11-21T08:38:53;37.25;;;16.10;;
31336;SDS011;22846;42.654;23.314;2023-11-21T08:41:18;20.77;;;9.05;;
31336;SDS011;22846;42.654;23.314;2023-11-21T08:43:47;14.32;;;7.40;;
31336;SDS011;22846;42.654;23.314;2023-11-21T08:46:14;15.00;;;6.88;;
31336;SDS011;22846;42.654;23.314;2023-11-21T08:48:40;15.65;;;6.53;;
31336;SDS011;22846;42.654;23.314;2023-11-21T08:51:06;10.77;;;5.97;;
31336;SDS011;22846;42.654;23.314;2023-11-21T08:53:31;15.43;;;6.28;;
31336;SDS011;22846;42.654;23.314;2023-11-21T08:55:57;12.00;;;6.47;;
31336;SDS011;22846;42.654;23.314;2023-11-21T08:58:23;15.50;;;7.65;;
31336;SDS011;22846;42.654;23.314;2023-11-21T09:00:50;13.48;;;8.63;;
31336;SDS011;22846;42.654;23.314;2023-11-21T09:03:16;22.13;;;7.82;;
31336;SDS011;22846;42.654;23.314;2023-11-21T09:05:41;15.93;;;7.43;;
31336;SDS011;22846;42.654;23.314;2023-11-21T09:08:07;16.23;;;8.18;;
31336;SDS011;22846;42.654;23.314;2023-11-21T09:10:33;14.60;;;7.07;;
31336;SDS011;22846;42.654;23.314;2023-11-21T09:13:01;12.68;;;7.05;;
31336;SDS011;22846;42.654;23.314;2023-11-21T09:15:27;16.13;;;7.93;;
31336;SDS011;22846;42.654;23.314;2023-11-21T09:17:53;13.90;;;7.70;;
31336;SDS011;22846;42.654;23.314;2023-11-21T09:20:18;12.20;;;7.07;;
31336;SDS011;22846;42.654;23.314;2023-11-21T09:22:48;13.98;;;7.45;;
31336;SDS011;22846;42.654;23.314;2023-11-21T09:25:14;12.60;;;7.13;;
31336;SDS011;22846;42.654;23.314;2023-11-21T09:27:40;14.50;;;6.82;;
31336;SDS011;22846;42.654;23.314;2023-11-21T09:30:06;11.63;;;6.95;;
31336;SDS011;22846;42.654;23.314;2023-11-21T09:32:35;15.45;;;6.78;;
31336;SDS011;22846;42.654;23.314;2023-11-21T09:35:02;13.70;;;6.50;;
31336;SDS011;22846;42.654;23.314;2023-11-21T09:37:28;11.15;;;6.45;;
31336;SDS011;22846;42.654;23.314;2023-11-21T09:39:55;10.57;;;6.18;;
31336;SDS011;22846;42.654;23.314;2023-11-21T09:42:25;10.10;;;6.35;;
31336;SDS011;22846;42.654;23.314;2023-11-21T09:47:35;11.63;;;6.18;;
31336;SDS011;22846;42.654;23.314;2023-11-21T09:50:04;10.55;;;6.15;;
31336;SDS011;22846;42.654;23.314;2023-11-21T09:52:39;11.98;;;5.90;;
31336;SDS011;22846;42.654;23.314;2023-11-21T09:55:13;9.45;;;5.57;;
31336;SDS011;22846;42.654;23.314;2023-11-21T09:57:41;11.05;;;6.20;;
31336;SDS011;22846;42.654;23.314;2023-11-21T10:00:07;13.68;;;6.05;;
31336;SDS011;22846;42.654;23.314;2023-11-21T10:02:36;12.32;;;5.80;;
31336;SDS011;22846;42.654;23.314;2023-11-21T10:05:03;13.23;;;5.78;;
31336;SDS011;22846;42.654;23.314;2023-11-21T10:07:29;8.70;;;5.75;;
31336;SDS011;22846;42.654;23.314;2023-11-21T10:09:57;9.27;;;5.25;;
31336;SDS011;22846;42.654;23.314;2023-11-21T10:12:25;9.50;;;5.57;;
31336;SDS011;22846;42.654;23.314;2023-11-21T10:14:53;8.85;;;5.50;;
31336;SDS011;22846;42.654;23.314;2023-11-21T10:17:21;11.07;;;5.45;;
31336;SDS011;22846;42.654;23.314;2023-11-21T10:19:49;10.45;;;5.15;;
31336;SDS011;22846;42.654;23.314;2023-11-21T10:22:15;13.95;;;5.47;;
31336;SDS011;22846;42.654;23.314;2023-11-21T10:24:41;10.27;;;5.53;;
31336;SDS011;22846;42.654;23.314;2023-11-21T10:27:08;10.70;;;5.57;;
31336;SDS011;22846;42.654;23.314;2023-11-21T10:29:34;12.93;;;5.63;;
31336;SDS011;22846;42.654;23.314;2023-11-21T10:32:01;9.63;;;5.47;;
31336;SDS011;22846;42.654;23.314;2023-11-21T10:34:27;10.15;;;5.63;;
31336;SDS011;22846;42.654;23.314;2023-11-21T10:36:53;10.43;;;5.20;;
31336;SDS011;22846;42.654;23.314;2023-11-21T10:39:21;18.90;;;5.50;;
31336;SDS011;22846;42.654;23.314;2023-11-21T10:41:48;10.43;;;5.18;;
31336;SDS011;22846;42.654;23.314;2023-11-21T10:44:15;12.55;;;5.45;;
31336;SDS011;22846;42.654;23.314;2023-11-21T10:46:52;11.05;;;5.28;;
31336;SDS011;22846;42.654;23.314;2023-11-21T10:49:21;8.57;;;5.03;;
31336;SDS011;22846;42.654;23.314;2023-11-21T10:51:49;10.07;;;4.90;;
31336;SDS011;22846;42.654;23.314;2023-11-21T10:54:20;12.50;;;5.22;;
31336;SDS011;22846;42.654;23.314;2023-11-21T10:56:50;15.55;;;5.68;;
31336;SDS011;22846;42.654;23.314;2023-11-21T10:59:22;13.35;;;5.60;;
31336;SDS011;22846;42.654;23.314;2023-11-21T11:01:50;17.05;;;4.78;;
31336;SDS011;22846;42.654;23.314;2023-11-21T11:04:20;12.25;;;5.25;;
31336;SDS011;22846;42.654;23.314;2023-11-21T11:06:51;10.50;;;5.40;;
31336;SDS011;22846;42.654;23.314;2023-11-21T11:09:22;10.10;;;5.30;;
31336;SDS011;22846;42.654;23.314;2023-11-21T11:11:48;12.48;;;5.53;;
31336;SDS011;22846;42.654;23.314;2023-11-21T11:14:14;11.93;;;5.22;;
31336;SDS011;22846;42.654;23.314;2023-11-21T11:16:41;12.95;;;5.28;;
31336;SDS011;22846;42.654;23.314;2023-11-21T11:19:08;14.05;;;6.32;;
31336;SDS011;22846;42.654;23.314;2023-11-21T11:24:28;13.00;;;6.00;;
31336;SDS011;22846;42.654;23.314;2023-11-21T11:35:04;15.95;;;5.75;;
31336;SDS011;22846;42.654;23.314;2023-11-21T11:37:41;15.68;;;5.45;;
31336;SDS011;22846;42.654;23.314;2023-11-21T11:40:08;13.18;;;5.30;;
31336;SDS011;22846;42.654;23.314;2023-11-21T11:42:36;8.60;;;4.70;;
31336;SDS011;22846;42.654;23.314;2023-11-21T11:45:02;11.90;;;5.28;;
31336;SDS011;22846;42.654;23.314;2023-11-21T11:47:42;12.15;;;4.90;;
31336;SDS011;22846;42.654;23.314;2023-11-21T11:50:10;10.85;;;5.20;;
31336;SDS011;22846;42.654;23.314;2023-11-21T11:52:51;9.05;;;5.30;;
31336;SDS011;22846;42.654;23.314;2023-11-21T11:55:20;7.90;;;5.22;;
31336;SDS011;22846;42.654;23.314;2023-11-21T11:57:53;7.65;;;4.82;;
31336;SDS011;22846;42.654;23.314;2023-11-21T12:02:52;6.90;;;4.75;;
31336;SDS011;22846;42.654;23.314;2023-11-21T12:05:27;11.68;;;5.43;;
31336;SDS011;22846;42.654;23.314;2023-11-21T12:07:53;11.18;;;5.10;;
31336;SDS011;22846;42.654;23.314;2023-11-21T12:10:26;11.13;;;5.30;;
31336;SDS011;22846;42.654;23.314;2023-11-21T12:13:00;8.88;;;4.85;;
31336;SDS011;22846;42.654;23.314;2023-11-21T12:15:27;9.00;;;4.47;;
31336;SDS011;22846;42.654;23.314;2023-11-21T12:17:57;12.02;;;4.97;;
31336;SDS011;22846;42.654;23.314;2023-11-21T12:20:26;7.22;;;4.43;;
31336;SDS011;22846;42.654;23.314;2023-11-21T12:22:55;9.93;;;4.90;;
31336;SDS011;22846;42.654;23.314;2023-11-21T12:25:26;7.78;;;5.13;;
31336;SDS011;22846;42.654;23.314;2023-11-21T12:27:54;15.90;;;5.05;;
31336;SDS011;22846;42.654;23.314;2023-11-21T12:30:21;10.90;;;5.03;;
31336;SDS011;22846;42.654;23.314;2023-11-21T12:32:49;10.20;;;4.80;;
31336;SDS011;22846;42.654;23.314;2023-11-21T12:35:22;12.60;;;4.97;;
31336;SDS011;22846;42.654;23.314;2023-11-21T12:37:50;8.57;;;4.65;;
31336;SDS011;22846;42.654;23.314;2023-11-21T12:40:17;9.63;;;4.70;;
31336;SDS011;22846;42.654;23.314;2023-11-21T12:42:44;8.18;;;4.35;;
31336;SDS011;22846;42.654;23.314;2023-11-21T12:47:46;14.55;;;4.88;;
31336;SDS011;22846;42.654;23.314;2023-11-21T12:50:11;9.55;;;4.70;;
31336;SDS011;22846;42.654;23.314;2023-11-21T12:52:42;8.57;;;4.03;;
31336;SDS011;22846;42.654;23.314;2023-11-21T12:55:22;8.45;;;4.78;;
31336;SDS011;22846;42.654;23.314;2023-11-21T12:57:51;8.05;;;4.82;;
31336;SDS011;22846;42.654;23.314;2023-11-21T13:00:28;13.02;;;4.95;;
31336;SDS011;22846;42.654;23.314;2023-11-21T13:03:08;10.60;;;4.67;;
31336;SDS011;22846;42.654;23.314;2023-11-21T13:05:37;10.65;;;4.72;;
31336;SDS011;22846;42.654;23.314;2023-11-21T13:08:04;10.77;;;4.72;;
31336;SDS011;22846;42.654;23.314;2023-11-21T13:10:35;10.68;;;5.03;;
31336;SDS011;22846;42.654;23.314;2023-11-21T13:13:07;11.25;;;4.75;;
31336;SDS011;22846;42.654;23.314;2023-11-21T13:15:34;14.93;;;5.03;;
31336;SDS011;22846;42.654;23.314;2023-11-21T13:18:05;9.85;;;4.70;;
31336;SDS011;22846;42.654;23.314;2023-11-21T13:20:32;11.02;;;4.25;;
31336;SDS011;22846;42.654;23.314;2023-11-21T13:22:58;8.90;;;4.38;;
31336;SDS011;22846;42.654;23.314;2023-11-21T13:25:27;10.18;;;4.38;;
31336;SDS011;22846;42.654;23.314;2023-11-21T13:27:54;12.40;;;4.60;;
31336;SDS011;22846;42.654;23.314;2023-11-21T13:30:19;8.13;;;4.28;;
31336;SDS011;22846;42.654;23.314;2023-11-21T13:32:55;8.02;;;4.53;;
31336;SDS011;22846;42.654;23.314;2023-11-21T13:35:27;16.17;;;4.90;;
31336;SDS011;22846;42.654;23.314;2023-11-21T13:38:02;8.15;;;4.22;;
31336;SDS011;22846;42.654;23.314;2023-11-21T13:40:53;9.32;;;4.63;;
31336;SDS011;22846;42.654;23.314;2023-11-21T13:43:20;7.40;;;4.43;;
31336;SDS011;22846;42.654;23.314;2023-11-21T13:45:49;16.92;;;4.72;;
31336;SDS011;22846;42.654;23.314;2023-11-21T13:48:20;8.65;;;4.78;;
31336;SDS011;22846;42.654;23.314;2023-11-21T13:50:57;11.18;;;4.35;;
31336;SDS011;22846;42.654;23.314;2023-11-21T13:53:26;10.57;;;5.55;;
31336;SDS011;22846;42.654;23.314;2023-11-21T13:55:51;10.18;;;4.30;;
31336;SDS011;22846;42.654;23.314;2023-11-21T13:58:22;10.93;;;4.43;;
31336;SDS011;22846;42.654;23.314;2023-11-21T14:01:00;11.20;;;4.97;;
31336;SDS011;22846;42.654;23.314;2023-11-21T14:03:31;11.77;;;4.80;;
31336;SDS011;22846;42.654;23.314;2023-11-21T14:06:09;10.40;;;4.45;;
31336;SDS011;22846;42.654;23.314;2023-11-21T14:08:39;10.18;;;4.50;;
31336;SDS011;22846;42.654;23.314;2023-11-21T14:11:06;8.57;;;4.60;;
31336;SDS011;22846;42.654;23.314;2023-11-21T14:13:32;10.60;;;4.28;;
31336;SDS011;22846;42.654;23.314;2023-11-21T14:15:58;10.35;;;4.82;;
31336;SDS011;22846;42.654;23.314;2023-11-21T14:18:26;13.13;;;4.35;;
31336;SDS011;22846;42.654;23.314;2023-11-21T14:21:15;6.30;;;4.28;;
31336;SDS011;22846;42.654;23.314;2023-11-21T14:23:41;9.30;;;5.03;;
31336;SDS011;22846;42.654;23.314;2023-11-21T14:26:08;9.63;;;5.18;;
31336;SDS011;22846;42.654;23.314;2023-11-21T14:28:34;10.60;;;4.65;;
31336;SDS011;22846;42.654;23.314;2023-11-21T14:31:02;7.22;;;4.63;;
31336;SDS011;22846;42.654;23.314;2023-11-21T14:33:28;14.07;;;5.03;;
31336;SDS011;22846;42.654;23.314;2023-11-21T14:35:53;11.80;;;4.95;;
31336;SDS011;22846;42.654;23.314;2023-11-21T14:38:19;15.10;;;6.57;;
31336;SDS011;22846;42.654;23.314;2023-11-21T14:40:44;7.68;;;4.80;;
31336;SDS011;22846;42.654;23.314;2023-11-21T14:43:10;18.80;;;5.22;;
31336;SDS011;22846;42.654;23.314;2023-11-21T14:45:35;12.65;;;5.32;;
31336;SDS011;22846;42.654;23.314;2023-11-21T14:48:01;13.43;;;5.30;;
31336;SDS011;22846;42.654;23.314;2023-11-21T14:50:29;11.27;;;4.70;;